createdAt,value
2023-01-02T00:02:19.865Z,2.29
2023-01-02T00:04:48.543Z,2.29
2023-01-02T00:07:16.983Z,2.27
2023-01-02T00:09:48.273Z,2.27
2023-01-02T00:12:17.089Z,2.28
2023-01-02T00:14:46.654Z,2.29
2023-01-02T00:17:17.683Z,2.29
2023-01-02T00:19:48.990Z,2.30
2023-01-02T00:22:17.805Z,2.33
2023-01-02T00:24:46.523Z,2.34
2023-01-02T00:27:16.107Z,2.37
2023-01-02T00:29:45.804Z,2.36
2023-01-02T00:32:14.713Z,2.34
2023-01-02T00:34:43.540Z,2.36
2023-01-02T00:37:13.919Z,2.38
2023-01-02T00:39:42.591Z,2.41
2023-01-02T00:42:11.277Z,2.41
2023-01-02T00:44:40.689Z,2.41
2023-01-02T00:47:09.312Z,2.42
2023-01-02T00:49:38.031Z,2.41
2023-01-02T00:52:06.911Z,2.40
2023-01-02T00:54:38.585Z,2.41
2023-01-02T00:57:07.295Z,2.43
2023-01-02T00:59:37.225Z,2.40
2023-01-02T01:02:06.061Z,2.38
2023-01-02T01:04:38.043Z,2.35
2023-01-02T01:07:12.757Z,2.35
2023-01-02T01:09:43.136Z,2.37
2023-01-02T01:12:13.986Z,2.33
2023-01-02T01:14:43.947Z,2.30
2023-01-02T01:17:15.192Z,2.30
2023-01-02T01:19:47.365Z,2.30
2023-01-02T01:22:18.564Z,2.30
2023-01-02T01:24:50.804Z,2.29
2023-01-02T01:27:19.844Z,2.27
2023-01-02T01:29:48.451Z,2.23
2023-01-02T01:32:17.142Z,2.22
2023-01-02T01:34:47.912Z,2.25
2023-01-02T01:37:16.921Z,2.30
2023-01-02T01:39:45.606Z,2.32
2023-01-02T01:42:17.813Z,2.35
2023-01-02T01:44:50.261Z,2.38
2023-01-02T01:47:32.528Z,2.36
2023-01-02T01:50:06.899Z,2.37
2023-01-02T01:52:40.614Z,2.36
2023-01-02T01:55:14.782Z,2.36
2023-01-02T01:57:51.731Z,2.33
2023-01-02T02:00:20.554Z,2.34
2023-01-02T02:02:55.852Z,2.32
2023-01-02T02:05:29.804Z,2.28
2023-01-02T02:08:08.546Z,2.29
2023-01-02T02:10:38.879Z,2.31
2023-01-02T02:13:08.924Z,2.32
2023-01-02T02:15:48.603Z,2.32
2023-01-02T02:18:31.400Z,2.33
2023-01-02T02:21:05.771Z,2.35
2023-01-02T02:24:04.291Z,2.37
2023-01-02T02:27:09.579Z,2.38
2023-01-02T02:30:14.457Z,2.38
2023-01-02T02:33:06.069Z,2.42
2023-01-02T02:35:49.461Z,2.42
2023-01-02T02:38:31.207Z,2.40
2023-01-02T02:41:08.857Z,2.39
2023-01-02T02:44:00.428Z,2.41
2023-01-02T02:46:42.865Z,2.41
2023-01-02T02:49:21.443Z,2.42
2023-01-02T02:51:57.677Z,2.42
2023-01-02T02:54:32.281Z,2.42
2023-01-02T02:57:02.423Z,2.43
2023-01-02T02:59:32.214Z,2.42
2023-01-02T03:02:04.301Z,2.42
2023-01-02T03:04:33.680Z,2.43
2023-01-02T03:07:18.286Z,2.44
2023-01-02T03:09:57.657Z,2.46
2023-01-02T03:12:37.945Z,2.45
2023-01-02T03:15:18.448Z,2.45
2023-01-02T03:18:02.862Z,2.48
2023-01-02T03:20:39.306Z,2.47
2023-01-02T03:23:15.560Z,2.46
2023-01-02T03:25:46.188Z,2.48
2023-01-02T03:28:18.937Z,2.48
2023-01-02T03:30:51.030Z,2.50
2023-01-02T03:33:27.019Z,2.49
2023-01-02T03:36:02.210Z,2.50
2023-01-02T03:38:35.995Z,2.59
2023-01-02T03:41:11.063Z,2.52
2023-01-02T03:43:42.282Z,2.53
2023-01-02T03:46:19.179Z,2.55
2023-01-02T03:48:57.201Z,2.53
2023-01-02T03:51:25.899Z,2.49
2023-01-02T03:53:55.498Z,2.50
2023-01-02T03:56:31.074Z,2.51
2023-01-02T03:59:07.882Z,2.47
2023-01-02T04:01:42.544Z,2.47
2023-01-02T04:04:19.253Z,2.49
2023-01-02T04:06:52.975Z,2.49
2023-01-02T04:09:25.443Z,2.52
2023-01-02T04:11:58.091Z,2.52
2023-01-02T04:14:32.606Z,2.47
2023-01-02T04:17:03.779Z,2.46
2023-01-02T04:19:42.310Z,2.45
2023-01-02T04:22:17.126Z,2.45
2023-01-02T04:24:52.006Z,2.49
2023-01-02T04:27:26.784Z,2.49
2023-01-02T04:29:58.138Z,2.50
2023-01-02T04:32:33.163Z,2.50
2023-01-02T04:35:07.712Z,2.48
2023-01-02T04:37:40.300Z,2.43
2023-01-02T04:40:15.129Z,2.40
2023-01-02T04:42:44.182Z,2.34
2023-01-02T04:45:14.092Z,2.31
2023-01-02T04:47:44.118Z,2.32
2023-01-02T04:50:15.455Z,2.35
2023-01-02T04:52:44.297Z,2.37
2023-01-02T04:55:12.995Z,2.38
2023-01-02T04:57:41.573Z,2.38
2023-01-02T05:00:11.186Z,2.36
2023-01-02T05:02:41.975Z,2.38
2023-01-02T05:05:11.589Z,2.36
2023-01-02T05:07:41.735Z,2.34
2023-01-02T05:10:11.522Z,2.31
2023-01-02T05:12:41.599Z,2.30
2023-01-02T05:15:15.622Z,2.31
2023-01-02T05:17:44.745Z,2.30
2023-01-02T05:20:15.076Z,2.36
2023-01-02T05:23:03.577Z,2.32
2023-01-02T05:25:35.680Z,2.35
2023-01-02T05:28:07.028Z,2.36
2023-01-02T05:30:39.071Z,2.34
2023-01-02T05:33:08.903Z,2.31
2023-01-02T05:35:38.371Z,2.26
2023-01-02T05:38:08.780Z,2.19
2023-01-02T05:40:37.652Z,2.18
2023-01-02T05:43:06.592Z,2.17
2023-01-02T05:45:36.275Z,2.16
2023-01-02T05:48:05.350Z,2.12
2023-01-02T05:50:34.993Z,2.14
2023-01-02T05:53:03.925Z,2.12
2023-01-02T05:55:34.047Z,2.15
2023-01-02T05:58:05.375Z,2.13
2023-01-02T06:00:35.871Z,2.08
2023-01-02T06:03:04.591Z,2.10
2023-01-02T06:05:33.462Z,2.04
2023-01-02T06:08:02.153Z,2.05
2023-01-02T06:10:31.845Z,1.99
2023-01-02T06:13:01.954Z,2.01
2023-01-02T06:15:30.567Z,2.02
2023-01-02T06:17:59.223Z,2.02
2023-01-02T06:20:28.119Z,2.09
2023-01-02T06:22:57.873Z,2.10
2023-01-02T06:25:26.704Z,2.08
2023-01-02T06:27:55.170Z,2.14
2023-01-02T06:30:26.494Z,2.11
2023-01-02T06:32:58.554Z,2.14
2023-01-02T06:35:27.485Z,2.18
2023-01-02T06:37:56.088Z,2.20
2023-01-02T06:40:25.820Z,2.26
2023-01-02T06:42:59.878Z,2.19
2023-01-02T06:45:30.520Z,2.16
2023-01-02T06:48:01.268Z,2.16
2023-01-02T06:50:34.898Z,2.14
2023-01-02T06:53:06.193Z,2.18
2023-01-02T06:55:36.334Z,2.16
2023-01-02T06:58:11.130Z,2.16
2023-01-02T07:00:43.668Z,2.21
2023-01-02T07:03:12.343Z,2.21
2023-01-02T07:05:41.047Z,2.21
2023-01-02T07:08:09.863Z,2.20
2023-01-02T07:10:38.767Z,2.19
2023-01-02T07:13:08.932Z,2.24
2023-01-02T07:15:38.004Z,2.23
2023-01-02T07:18:08.160Z,2.25
2023-01-02T07:20:36.833Z,2.23
2023-01-02T07:23:05.421Z,2.20
2023-01-02T07:25:35.365Z,2.23
2023-01-02T07:28:07.084Z,2.20
2023-01-02T07:30:35.745Z,2.22
2023-01-02T07:33:04.293Z,2.25
2023-01-02T07:35:34.389Z,2.26
2023-01-02T07:38:02.774Z,2.24
2023-01-02T07:40:35.351Z,2.26
2023-01-02T07:43:05.076Z,2.27
2023-01-02T07:45:34.932Z,2.22
2023-01-02T07:48:05.587Z,2.21
2023-01-02T07:50:37.014Z,2.21
2023-01-02T07:53:06.004Z,2.23
2023-01-02T07:55:37.826Z,2.25
2023-01-02T07:58:06.584Z,2.22
2023-01-02T08:00:36.255Z,2.22
2023-01-02T08:03:05.289Z,2.21
2023-01-02T08:05:36.861Z,2.18
2023-01-02T08:08:06.929Z,2.19
2023-01-02T08:10:35.613Z,2.12
2023-01-02T08:13:04.289Z,2.09
2023-01-02T08:15:32.871Z,2.06
2023-01-02T08:18:01.434Z,2.03
2023-01-02T08:20:30.490Z,2.00
2023-01-02T08:23:01.936Z,1.99
2023-01-02T08:25:30.816Z,1.93
2023-01-02T08:27:59.565Z,1.86
2023-01-02T08:30:28.170Z,1.84
2023-01-02T08:32:56.850Z,1.78
2023-01-02T08:35:38.064Z,1.74
2023-01-02T08:38:10.283Z,1.68
2023-01-02T08:40:39.725Z,1.65
2023-01-02T08:43:08.915Z,1.60
2023-01-02T08:45:37.812Z,1.60
2023-01-02T08:48:20.639Z,1.54
2023-01-02T08:50:51.143Z,1.52
2023-01-02T08:53:21.089Z,1.51
2023-01-02T08:55:49.885Z,1.52
2023-01-02T08:58:21.107Z,1.50
2023-01-02T09:00:49.487Z,1.48
2023-01-02T09:03:18.168Z,1.52
2023-01-02T09:05:46.798Z,1.48
2023-01-02T09:08:15.154Z,1.47
2023-01-02T09:10:45.634Z,1.48
2023-01-02T09:13:14.462Z,1.51
2023-01-02T09:15:46.373Z,1.51
2023-01-02T09:18:14.803Z,1.54
2023-01-02T09:20:43.330Z,1.55
2023-01-02T09:23:17.575Z,1.56
2023-01-02T09:25:49.621Z,1.58
2023-01-02T09:28:18.077Z,1.60
2023-01-02T09:30:47.018Z,1.61
2023-01-02T09:33:20.302Z,1.65
2023-01-02T09:35:49.350Z,1.70
2023-01-02T09:38:18.200Z,1.77
2023-01-02T09:40:56.521Z,1.83
2023-01-02T09:43:33.416Z,1.95
2023-01-02T09:46:04.656Z,2.09
2023-01-02T09:48:37.753Z,2.31
2023-01-02T09:51:08.081Z,2.53
2023-01-02T09:53:37.138Z,2.79
2023-01-02T09:56:21.048Z,3.03
2023-01-02T09:58:56.244Z,3.20
2023-01-02T10:01:34.995Z,3.42
2023-01-02T10:04:14.624Z,3.51
2023-01-02T10:06:49.043Z,3.66
2023-01-02T10:09:24.303Z,3.73
2023-01-02T10:12:03.376Z,3.87
2023-01-02T10:14:44.740Z,3.88
2023-01-02T10:17:17.814Z,4.00
2023-01-02T10:19:54.159Z,3.89
2023-01-02T10:22:30.358Z,3.83
2023-01-02T10:25:07.438Z,3.79
2023-01-02T10:27:43.447Z,3.74
2023-01-02T10:30:21.361Z,3.76
2023-01-02T10:32:57.401Z,3.96
2023-01-02T10:35:38.669Z,4.17
2023-01-02T10:38:07.711Z,4.32
2023-01-02T10:40:36.601Z,4.19
2023-01-02T10:43:07.093Z,4.31
2023-01-02T10:45:35.968Z,4.34
2023-01-02T10:48:05.340Z,4.34
2023-01-02T10:50:41.844Z,4.43
2023-01-02T10:53:21.176Z,4.46
2023-01-02T10:55:50.538Z,4.56
2023-01-02T10:58:24.367Z,4.83
2023-01-02T11:01:04.485Z,5.07
2023-01-02T11:03:33.095Z,5.05
2023-01-02T11:06:25.670Z,5.09
2023-01-02T11:09:00.264Z,4.93
2023-01-02T11:11:30.669Z,4.94
2023-01-02T11:14:11.716Z,4.91
2023-01-02T11:16:42.223Z,5.02
2023-01-02T11:19:27.472Z,5.06
2023-01-02T11:21:58.800Z,5.04
2023-01-02T11:24:28.914Z,5.00
2023-01-02T11:27:02.219Z,5.12
2023-01-02T11:29:36.234Z,5.18
2023-01-02T11:32:06.318Z,5.38
2023-01-02T11:34:37.720Z,5.62
2023-01-02T11:37:16.313Z,5.69
2023-01-02T11:39:59.880Z,5.78
2023-01-02T11:42:55.006Z,5.79
2023-01-02T11:45:25.176Z,5.94
2023-01-02T11:47:58.684Z,5.85
2023-01-02T11:50:29.447Z,5.79
2023-01-02T11:53:04.175Z,5.80
2023-01-02T11:55:44.775Z,5.76
2023-01-02T11:58:23.716Z,5.70
2023-01-02T12:00:59.559Z,5.71
2023-01-02T12:03:30.877Z,5.97
2023-01-02T12:06:17.824Z,6.03
2023-01-02T12:09:02.199Z,6.09
2023-01-02T12:11:47.752Z,6.14
2023-01-02T12:14:19.743Z,6.39
2023-01-02T12:17:16.174Z,6.49
2023-01-02T12:20:18.039Z,6.51
2023-01-02T12:23:31.804Z,6.65
2023-01-02T12:26:10.660Z,6.73
2023-01-02T12:29:01.262Z,6.39
2023-01-02T12:31:49.732Z,6.28
2023-01-02T12:34:35.629Z,6.14
2023-01-02T12:37:24.453Z,6.17
2023-01-02T12:40:20.980Z,6.32
2023-01-02T12:43:03.683Z,6.40
2023-01-02T12:45:40.783Z,6.56
2023-01-02T12:48:24.967Z,6.51
2023-01-02T12:51:09.012Z,6.45
2023-01-02T12:54:19.077Z,6.66
2023-01-02T12:57:07.628Z,6.63
2023-01-02T13:00:13.260Z,6.59
2023-01-02T13:03:10.523Z,6.53
2023-01-02T13:05:49.487Z,6.54
2023-01-02T13:08:33.255Z,6.57
2023-01-02T13:11:05.709Z,6.58
2023-01-02T13:13:40.520Z,6.65
2023-01-02T13:16:25.300Z,6.94
2023-01-02T13:19:17.812Z,7.17
2023-01-02T13:21:52.996Z,7.26
2023-01-02T13:24:27.240Z,7.22
2023-01-02T13:26:58.395Z,7.12
2023-01-02T13:29:30.966Z,6.86
2023-01-02T13:31:59.664Z,6.70
2023-01-02T13:34:32.417Z,6.63
2023-01-02T13:37:07.128Z,6.71
2023-01-02T13:39:50.427Z,6.67
2023-01-02T13:42:43.114Z,6.59
2023-01-02T13:45:19.895Z,6.42
2023-01-02T13:47:54.138Z,6.34
2023-01-02T13:50:32.263Z,6.27
2023-01-02T13:53:06.893Z,6.38
2023-01-02T13:55:41.039Z,6.41
2023-01-02T13:58:43.881Z,6.43
2023-01-02T14:01:43.210Z,6.51
2023-01-02T14:04:33.623Z,6.66
2023-01-02T14:07:45.379Z,6.56
2023-01-02T14:10:42.167Z,6.41
2023-01-02T14:13:22.203Z,6.51
2023-01-02T14:16:42.444Z,6.48
2023-01-02T14:19:20.945Z,6.39
2023-01-02T14:22:01.912Z,6.49
2023-01-02T14:24:35.100Z,6.43
2023-01-02T14:27:10.503Z,6.53
2023-01-02T14:29:53.277Z,6.53
2023-01-02T14:32:31.574Z,6.54
2023-01-02T14:35:04.274Z,6.55
2023-01-02T14:37:41.199Z,6.53
2023-01-02T14:40:37.011Z,6.65
2023-01-02T14:43:31.588Z,6.90
2023-01-02T14:46:09.219Z,7.50
2023-01-02T14:48:49.175Z,8.08
2023-01-02T14:51:23.256Z,8.40
2023-01-02T14:53:56.120Z,7.46
2023-01-02T14:56:33.132Z,6.62
2023-01-02T14:59:07.566Z,6.19
2023-01-02T15:01:44.854Z,5.91
2023-01-02T15:04:25.069Z,5.77
2023-01-02T15:07:10.783Z,5.68
2023-01-02T15:09:45.539Z,5.55
2023-01-02T15:12:41.160Z,5.52
2023-01-02T15:15:14.025Z,5.49
2023-01-02T15:17:44.579Z,5.53
2023-01-02T15:20:21.567Z,5.45
2023-01-02T15:22:53.765Z,5.37
2023-01-02T15:25:37.795Z,5.34
2023-01-02T15:28:07.583Z,5.33
2023-01-02T15:30:40.662Z,5.25
2023-01-02T15:33:29.606Z,5.15
2023-01-02T15:36:04.100Z,5.16
2023-01-02T15:38:34.875Z,5.12
2023-01-02T15:41:11.780Z,5.09
2023-01-02T15:43:59.285Z,5.00
2023-01-02T15:46:29.832Z,4.93
2023-01-02T15:49:02.723Z,4.90
2023-01-02T15:51:41.554Z,4.88
2023-01-02T15:54:15.219Z,4.84
2023-01-02T15:56:44.485Z,4.81
2023-01-02T15:59:30.242Z,4.80
2023-01-02T16:02:02.903Z,4.77
2023-01-02T16:04:35.160Z,4.70
2023-01-02T16:07:16.797Z,4.63
2023-01-02T16:09:58.978Z,4.60
2023-01-02T16:12:28.194Z,4.54
2023-01-02T16:15:02.341Z,4.46
2023-01-02T16:17:38.095Z,4.40
2023-01-02T16:20:11.911Z,4.37
2023-01-02T16:22:46.185Z,4.37
2023-01-02T16:25:20.023Z,4.26
2023-01-02T16:27:56.174Z,4.19
2023-01-02T16:30:37.887Z,4.14
2023-01-02T16:33:27.053Z,4.05
2023-01-02T16:36:01.433Z,3.99
2023-01-02T16:38:32.445Z,3.92
2023-01-02T16:41:12.598Z,3.94
2023-01-02T16:43:48.263Z,3.87
2023-01-02T16:46:18.301Z,3.82
2023-01-02T16:48:48.537Z,3.77
2023-01-02T16:51:18.106Z,3.78
2023-01-02T16:53:49.746Z,3.70
2023-01-02T16:56:18.425Z,3.64
2023-01-02T16:58:49.334Z,3.60
2023-01-02T17:01:26.746Z,3.58
2023-01-02T17:03:59.740Z,3.51
2023-01-02T17:06:28.377Z,3.49
2023-01-02T17:08:57.298Z,3.48
2023-01-02T17:11:27.207Z,3.47
2023-01-02T17:14:02.649Z,3.44
2023-01-02T17:16:33.452Z,3.38
2023-01-02T17:19:03.626Z,3.38
2023-01-02T17:21:33.087Z,3.34
2023-01-02T17:24:02.153Z,3.40
2023-01-02T17:26:30.870Z,3.30
2023-01-02T17:29:01.884Z,3.38
2023-01-02T17:31:31.622Z,3.46
2023-01-02T17:34:02.310Z,3.46
2023-01-02T17:36:33.615Z,3.52
2023-01-02T17:39:02.597Z,3.49
2023-01-02T17:41:34.235Z,3.45
2023-01-02T17:44:04.125Z,3.43
2023-01-02T17:47:16.624Z,3.39
2023-01-02T17:49:23.103Z,3.35
2023-01-02T17:51:59.250Z,3.25
2023-01-02T17:54:29.231Z,3.25
2023-01-02T17:56:58.344Z,3.24
2023-01-02T17:59:27.385Z,3.21
2023-01-02T18:02:01.567Z,3.11
2023-01-02T18:04:31.170Z,3.08
2023-01-02T18:07:02.616Z,3.09
2023-01-02T18:09:33.819Z,2.95
2023-01-02T18:12:02.378Z,2.95
2023-01-02T18:14:37.342Z,2.92
2023-01-02T18:17:16.410Z,2.96
2023-01-02T18:19:48.351Z,2.94
2023-01-02T18:22:24.344Z,2.95
2023-01-02T18:24:55.486Z,2.95
2023-01-02T18:27:27.867Z,2.91
2023-01-02T18:30:00.694Z,2.87
2023-01-02T18:32:35.067Z,2.87
2023-01-02T18:35:55.048Z,2.81
2023-01-02T18:38:22.155Z,2.77
2023-01-02T18:40:53.689Z,2.72
2023-01-02T18:43:32.893Z,2.72
2023-01-02T18:46:16.525Z,2.76
2023-01-02T18:48:48.055Z,2.76
2023-01-02T18:51:21.075Z,2.80
2023-01-02T18:53:53.072Z,2.82
2023-01-02T18:56:26.183Z,2.80
2023-01-02T18:59:03.396Z,2.77
2023-01-02T19:01:36.737Z,2.69
2023-01-02T19:04:28.170Z,2.68
2023-01-02T19:07:03.534Z,2.64
2023-01-02T19:09:36.520Z,2.63
2023-01-02T19:12:44.587Z,2.63
2023-01-02T19:15:34.474Z,2.61
2023-01-02T19:18:21.321Z,2.54
2023-01-02T19:20:57.634Z,2.57
2023-01-02T19:23:31.758Z,2.54
2023-01-02T19:26:23.496Z,2.56
2023-01-02T19:29:05.645Z,2.59
2023-01-02T19:31:42.952Z,2.57
2023-01-02T19:34:40.346Z,2.55
2023-01-02T19:37:28.073Z,2.41
2023-01-02T19:39:59.463Z,2.42
2023-01-02T19:42:32.366Z,2.36
2023-01-02T19:45:03.946Z,2.37
2023-01-02T19:47:40.810Z,2.31
2023-01-02T19:50:14.202Z,2.22
2023-01-02T19:52:43.463Z,2.19
2023-01-02T19:55:14.464Z,2.17
2023-01-02T19:57:47.942Z,2.17
2023-01-02T20:00:19.720Z,2.24
2023-01-02T20:02:51.991Z,2.44
2023-01-02T20:05:22.977Z,2.42
2023-01-02T20:07:53.495Z,2.51
2023-01-02T20:10:22.920Z,2.56
2023-01-02T20:12:55.699Z,2.54
2023-01-02T20:15:26.249Z,2.55
2023-01-02T20:17:56.848Z,2.63
2023-01-02T20:20:31.477Z,2.82
2023-01-02T20:23:05.988Z,2.97
2023-01-02T20:25:36.673Z,3.05
2023-01-02T20:28:07.012Z,3.15
2023-01-02T20:30:36.739Z,3.18
2023-01-02T20:33:06.690Z,3.15
2023-01-02T20:35:35.501Z,3.14
2023-01-02T20:38:04.245Z,3.13
2023-01-02T20:40:39.721Z,3.14
2023-01-02T20:43:09.893Z,3.39
2023-01-02T20:45:40.565Z,3.44
2023-01-02T20:48:09.222Z,3.41
2023-01-02T20:50:37.835Z,3.35
2023-01-02T20:53:07.079Z,3.34
2023-01-02T20:55:38.025Z,3.39
2023-01-02T20:58:07.271Z,3.42
2023-01-02T21:00:38.306Z,3.31
2023-01-02T21:03:08.775Z,3.46
2023-01-02T21:05:39.746Z,3.54
2023-01-02T21:08:09.857Z,3.51
2023-01-02T21:10:38.506Z,3.61
2023-01-02T21:13:11.034Z,3.59
2023-01-02T21:15:50.116Z,3.47
2023-01-02T21:18:20.904Z,3.36
2023-01-02T21:20:51.909Z,3.37
2023-01-02T21:23:21.852Z,3.44
2023-01-02T21:25:51.387Z,3.43
2023-01-02T21:28:21.166Z,3.51
2023-01-02T21:30:51.939Z,3.52
2023-01-02T21:33:22.205Z,3.51
2023-01-02T21:35:52.809Z,3.43
2023-01-02T21:38:22.959Z,3.26
2023-01-02T21:40:52.046Z,3.12
2023-01-02T21:43:21.390Z,3.03
2023-01-02T21:45:51.424Z,2.97
2023-01-02T21:48:20.071Z,2.94
2023-01-02T21:50:48.474Z,2.98
2023-01-02T21:53:18.290Z,2.99
2023-01-02T21:55:47.102Z,3.09
2023-01-02T21:58:15.860Z,3.27
2023-01-02T22:00:44.693Z,3.41
2023-01-02T22:03:14.723Z,3.51
2023-01-02T22:05:43.592Z,3.69
2023-01-02T22:08:12.022Z,3.78
2023-01-02T22:10:40.870Z,3.87
2023-01-02T22:13:09.454Z,3.76
2023-01-02T22:15:38.102Z,3.99
2023-01-02T22:18:06.928Z,4.00
2023-01-02T22:20:36.971Z,3.89
2023-01-02T22:23:08.649Z,3.82
2023-01-02T22:25:38.150Z,3.91
2023-01-02T22:28:07.107Z,4.05
2023-01-02T22:30:35.733Z,4.08
2023-01-02T22:33:05.079Z,4.02
2023-01-02T22:35:34.430Z,4.01
2023-01-02T22:38:04.844Z,4.48
2023-01-02T22:40:35.022Z,4.50
2023-01-02T22:43:05.660Z,4.61
2023-01-02T22:45:43.408Z,4.68
2023-01-02T22:48:20.493Z,4.79
2023-01-02T22:50:51.203Z,4.76
2023-01-02T22:53:26.010Z,4.82
2023-01-02T22:55:54.992Z,4.77
2023-01-02T22:58:24.169Z,4.75
2023-01-02T23:00:59.002Z,4.81
2023-01-02T23:03:30.629Z,4.82
2023-01-02T23:05:59.240Z,4.85
2023-01-02T23:08:29.552Z,4.90
2023-01-02T23:10:58.323Z,4.89
2023-01-02T23:13:27.060Z,4.97
2023-01-02T23:16:13.227Z,5.00
2023-01-02T23:18:59.174Z,5.07
2023-01-02T23:21:29.634Z,5.07
2023-01-02T23:24:01.905Z,5.24
2023-01-02T23:26:35.617Z,5.24
2023-01-02T23:29:08.391Z,5.23
2023-01-02T23:31:39.438Z,5.40
2023-01-02T23:34:08.707Z,5.39
2023-01-02T23:36:38.097Z,5.44
2023-01-02T23:39:09.935Z,5.34
2023-01-02T23:41:38.575Z,5.21
2023-01-02T23:44:07.438Z,5.17
2023-01-02T23:46:36.936Z,5.21
2023-01-02T23:49:08.532Z,5.12
2023-01-02T23:51:37.267Z,5.10
2023-01-02T23:54:07.946Z,5.11
2023-01-02T23:56:40.168Z,5.07
2023-01-02T23:59:11.179Z,4.99
